createdAt,value
2019-04-16T00:00:12.081Z,29.85
2019-04-16T00:02:42.383Z,27.73
2019-04-16T00:05:12.291Z,24.80
2019-04-16T00:07:44.613Z,26.07
2019-04-16T00:10:23.675Z,27.75
2019-04-16T00:12:56.250Z,25.55
2019-04-16T00:15:24.486Z,28.52
2019-04-16T00:17:52.732Z,25.90
2019-04-16T00:20:20.948Z,26.68
2019-04-16T00:22:59.913Z,27.95
2019-04-16T00:25:28.142Z,28.35
2019-04-16T00:27:59.503Z,25.80
2019-04-16T00:30:26.311Z,27.32
2019-04-16T00:32:54.526Z,26.93
2019-04-16T00:35:22.774Z,25.72
2019-04-16T00:37:51.675Z,28.75
2019-04-16T00:40:20.595Z,25.15
2019-04-16T00:42:48.836Z,26.15
2019-04-16T00:45:17.051Z,27.10
2019-04-16T00:47:48.038Z,24.55
2019-04-16T00:50:15.232Z,29.75
2019-04-16T00:52:43.454Z,30.70
2019-04-16T00:55:14.563Z,25.05
2019-04-16T00:57:41.637Z,27.32
2019-04-16T01:00:15.153Z,26.57
2019-04-16T01:05:10.899Z,29.07
2019-04-16T01:07:39.130Z,28.92
2019-04-16T01:10:07.340Z,29.92
2019-04-16T01:12:35.565Z,28.75
2019-04-16T01:15:04.518Z,26.68
2019-04-16T01:17:33.416Z,27.93
2019-04-16T01:20:03.781Z,27.37
2019-04-16T01:22:32.009Z,30.08
2019-04-16T01:25:00.223Z,32.08
2019-04-16T01:27:32.495Z,31.20
2019-04-16T01:30:04.913Z,28.40
2019-04-16T01:32:35.014Z,31.77
2019-04-16T01:35:23.663Z,27.73
2019-04-16T01:38:09.895Z,28.12
2019-04-16T01:40:39.820Z,26.55
2019-04-16T01:43:08.288Z,28.80
2019-04-16T01:45:36.545Z,30.17
2019-04-16T01:48:07.851Z,28.98
2019-04-16T01:50:34.721Z,27.87
2019-04-16T01:53:02.951Z,27.90
2019-04-16T01:55:31.165Z,26.77
2019-04-16T01:58:02.484Z,27.25
2019-04-16T02:00:29.351Z,28.20
2019-04-16T02:02:57.575Z,25.80
2019-04-16T02:05:25.844Z,24.95
2019-04-16T02:07:56.396Z,28.38
2019-04-16T02:10:23.985Z,27.67
2019-04-16T02:12:52.217Z,28.60
2019-04-16T02:15:21.908Z,28.38
2019-04-16T02:17:50.418Z,25.52
2019-04-16T02:20:18.638Z,25.95
2019-04-16T02:22:46.861Z,28.23
2019-04-16T02:25:18.770Z,27.15
2019-04-16T02:27:45.107Z,30.48
2019-04-16T02:30:13.332Z,25.80
2019-04-16T02:32:41.558Z,29.48
2019-04-16T02:35:09.780Z,28.42
2019-04-16T02:37:38.034Z,30.00
2019-04-16T02:40:06.321Z,32.30
2019-04-16T02:42:35.035Z,36.10
2019-04-16T02:45:03.263Z,32.05
2019-04-16T02:47:32.419Z,29.45
2019-04-16T02:50:01.833Z,30.40
2019-04-16T02:52:41.001Z,29.48
2019-04-16T02:55:11.337Z,29.20
2019-04-16T02:57:41.520Z,28.57
2019-04-16T03:00:11.366Z,30.60
2019-04-16T03:02:44.266Z,31.52
2019-04-16T03:05:14.177Z,32.08
2019-04-16T03:07:42.464Z,48.42
2019-04-16T03:10:13.312Z,34.90
2019-04-16T03:12:40.634Z,32.38
2019-04-16T03:15:08.865Z,41.50
2019-04-16T03:17:42.725Z,37.88
2019-04-16T03:20:13.107Z,31.70
2019-04-16T03:22:41.315Z,30.30
2019-04-16T03:25:12.912Z,27.95
2019-04-16T03:27:39.493Z,30.10
2019-04-16T03:30:08.393Z,28.73
2019-04-16T03:32:52.004Z,27.40
2019-04-16T03:35:25.378Z,27.42
2019-04-16T03:37:50.234Z,27.67
2019-04-16T03:40:24.223Z,29.15
2019-04-16T03:42:48.431Z,29.18
2019-04-16T03:45:16.696Z,31.70
2019-04-16T03:47:44.943Z,29.60
2019-04-16T03:50:13.429Z,29.07
2019-04-16T03:52:45.526Z,30.02
2019-04-16T03:55:11.614Z,28.73
2019-04-16T03:57:39.843Z,32.63
2019-04-16T04:00:11.395Z,28.67
2019-04-16T04:02:38.078Z,28.05
2019-04-16T04:05:07.333Z,29.20
2019-04-16T04:07:35.831Z,29.67
2019-04-16T04:10:07.160Z,28.92
2019-04-16T04:12:35.387Z,29.87
2019-04-16T04:15:05.171Z,31.48
2019-04-16T04:17:35.657Z,29.35
2019-04-16T04:20:06.231Z,29.15
2019-04-16T04:22:34.575Z,32.45
2019-04-16T04:25:04.357Z,37.65
2019-04-16T04:27:32.769Z,49.83
2019-04-16T04:30:00.989Z,34.25
2019-04-16T04:32:29.201Z,32.65
2019-04-16T04:34:57.426Z,29.77
2019-04-16T04:37:30.917Z,30.88
2019-04-16T04:39:55.686Z,32.93
2019-04-16T04:42:25.637Z,32.28
2019-04-16T04:44:53.908Z,29.65
2019-04-16T04:47:22.148Z,28.27
2019-04-16T04:49:50.414Z,32.48
2019-04-16T04:52:18.614Z,30.52
2019-04-16T04:54:46.850Z,30.17
2019-04-16T04:57:15.110Z,34.08
2019-04-16T04:59:43.322Z,32.38
2019-04-16T05:02:14.330Z,31.12
2019-04-16T05:04:46.082Z,28.55
2019-04-16T05:07:15.964Z,28.87
2019-04-16T05:09:44.215Z,30.95
2019-04-16T05:12:12.433Z,28.73
2019-04-16T05:14:42.289Z,37.88
2019-04-16T05:17:19.469Z,33.48
2019-04-16T05:19:48.203Z,32.28
2019-04-16T05:22:20.669Z,35.55
2019-04-16T05:24:46.776Z,28.92
2019-04-16T05:27:15.012Z,30.45
2019-04-16T05:29:43.265Z,31.97
2019-04-16T05:32:11.498Z,27.75
2019-04-16T05:34:39.754Z,28.87
2019-04-16T05:37:08.062Z,31.37
2019-04-16T05:39:36.312Z,29.27
2019-04-16T05:42:04.611Z,30.82
2019-04-16T05:44:33.964Z,33.00
2019-04-16T05:47:02.479Z,30.68
2019-04-16T05:49:30.736Z,33.60
2019-04-16T05:52:02.845Z,31.07
2019-04-16T05:54:33.464Z,35.13
2019-04-16T05:57:03.362Z,35.10
2019-04-16T05:59:33.773Z,32.75
2019-04-16T06:02:18.268Z,33.28
2019-04-16T06:04:45.018Z,34.98
2019-04-16T06:07:13.279Z,33.18
2019-04-16T06:09:44.448Z,34.73
2019-04-16T06:12:11.439Z,35.65
2019-04-16T06:14:49.745Z,32.20
2019-04-16T06:17:37.177Z,35.15
2019-04-16T06:20:07.594Z,34.33
2019-04-16T06:22:53.813Z,32.03
2019-04-16T06:25:42.140Z,30.27
2019-04-16T06:28:19.709Z,32.28
2019-04-16T06:30:49.575Z,29.90
2019-04-16T06:33:25.231Z,31.87
2019-04-16T06:35:55.091Z,30.52
2019-04-16T06:38:24.999Z,32.53
2019-04-16T06:40:54.923Z,28.52
2019-04-16T06:43:26.286Z,31.48
2019-04-16T06:46:12.740Z,30.48
2019-04-16T06:48:45.997Z,29.48
2019-04-16T06:51:17.108Z,27.65
2019-04-16T06:53:56.851Z,29.33
2019-04-16T06:56:30.447Z,26.95
2019-04-16T06:59:03.024Z,30.73
2019-04-16T07:01:36.754Z,26.65
2019-04-16T07:04:07.179Z,26.27
2019-04-16T07:06:43.887Z,28.42
2019-04-16T07:09:13.990Z,27.75
2019-04-16T07:11:53.633Z,27.60
2019-04-16T07:14:15.574Z,24.67
2019-04-16T07:16:43.795Z,27.30
2019-04-16T07:19:12.086Z,26.60
2019-04-16T07:21:40.307Z,26.42
2019-04-16T07:24:08.538Z,26.02
2019-04-16T07:26:39.442Z,27.77
2019-04-16T07:29:11.460Z,24.43
2019-04-16T07:31:41.685Z,26.55
2019-04-16T07:34:27.554Z,25.32
2019-04-16T07:37:01.797Z,26.17
2019-04-16T07:39:37.259Z,24.67
2019-04-16T07:43:47.020Z,25.23
2019-04-16T07:44:41.158Z,26.25
2019-04-16T07:47:33.380Z,22.77
2019-04-16T07:50:19.692Z,24.37
2019-04-16T07:52:52.683Z,24.35
2019-04-16T07:55:31.546Z,26.57
2019-04-16T07:57:59.940Z,26.27
2019-04-16T08:00:28.185Z,26.57
2019-04-16T08:02:56.406Z,27.50
2019-04-16T08:05:27.654Z,27.07
2019-04-16T08:07:54.626Z,28.15
2019-04-16T08:10:22.858Z,24.07
2019-04-16T08:12:53.192Z,23.20
2019-04-16T08:15:21.427Z,21.65
2019-04-16T08:17:49.646Z,22.35
2019-04-16T08:20:20.971Z,24.45
2019-04-16T08:22:49.012Z,23.02
2019-04-16T08:25:18.890Z,25.35
2019-04-16T08:27:47.443Z,23.67
2019-04-16T08:30:17.084Z,26.95
2019-04-16T08:32:45.757Z,27.35
2019-04-16T08:35:15.251Z,26.15
2019-04-16T08:37:49.237Z,25.70
2019-04-16T08:40:13.463Z,25.88
2019-04-16T08:42:44.778Z,20.92
2019-04-16T08:45:11.659Z,21.37
2019-04-16T08:47:44.550Z,24.30
2019-04-16T08:50:11.704Z,28.70
2019-04-16T08:52:41.678Z,23.92
2019-04-16T08:55:09.766Z,25.62
2019-04-16T08:57:37.989Z,20.72
2019-04-16T09:00:08.637Z,20.80
2019-04-16T09:02:38.474Z,20.57
2019-04-16T09:05:11.076Z,19.15
2019-04-16T09:07:39.622Z,21.07
2019-04-16T09:10:17.074Z,22.37
2019-04-16T09:12:43.436Z,22.48
2019-04-16T09:15:11.373Z,20.10
2019-04-16T09:17:41.263Z,17.75
2019-04-16T09:20:11.126Z,19.40
2019-04-16T09:22:48.895Z,20.45
2019-04-16T09:25:16.806Z,22.85
2019-04-16T09:28:02.391Z,19.32
2019-04-16T09:30:49.703Z,23.50
2019-04-16T09:33:23.335Z,19.82
2019-04-16T09:35:53.203Z,18.23
2019-04-16T09:38:23.099Z,19.73
2019-04-16T09:40:55.852Z,21.40
2019-04-16T09:43:28.364Z,16.82
2019-04-16T09:46:09.621Z,15.60
2019-04-16T09:48:26.756Z,16.35
2019-04-16T09:50:55.091Z,18.98
2019-04-16T09:53:33.486Z,17.00
2019-04-16T09:55:53.241Z,13.60
2019-04-16T09:58:25.509Z,13.18
2019-04-16T10:00:58.539Z,15.00
2019-04-16T10:03:28.950Z,12.33
2019-04-16T10:05:57.355Z,13.08
2019-04-16T10:08:25.655Z,17.57
2019-04-16T10:10:53.931Z,14.33
2019-04-16T10:13:31.580Z,17.37
2019-04-16T10:15:55.486Z,14.18
2019-04-16T10:18:22.458Z,15.88
2019-04-16T10:20:50.669Z,15.80
2019-04-16T10:23:32.668Z,13.68
2019-04-16T10:26:00.916Z,13.35
2019-04-16T10:28:39.793Z,14.03
2019-04-16T10:31:08.928Z,11.30
2019-04-16T10:33:37.260Z,13.88
2019-04-16T10:36:06.165Z,13.35
2019-04-16T10:38:38.831Z,11.65
2019-04-16T10:41:08.745Z,10.98
2019-04-16T10:43:45.214Z,11.45
2019-04-16T10:46:18.064Z,11.60
2019-04-16T10:48:57.330Z,10.72
2019-04-16T10:51:30.382Z,12.00
2019-04-16T10:54:18.371Z,11.47
2019-04-16T10:57:04.446Z,10.35
2019-04-16T10:59:37.229Z,11.33
2019-04-16T11:02:10.644Z,8.40
2019-04-16T11:04:45.540Z,12.90
2019-04-16T11:07:15.396Z,8.80
2019-04-16T11:09:43.677Z,10.98
2019-04-16T11:12:12.070Z,10.72
2019-04-16T11:14:40.346Z,9.83
2019-04-16T11:17:08.665Z,8.93
2019-04-16T11:19:36.975Z,10.90
2019-04-16T11:22:05.686Z,9.05
2019-04-16T11:24:34.040Z,8.70
2019-04-16T11:27:02.236Z,9.30
2019-04-16T11:29:30.461Z,13.62
2019-04-16T11:31:58.754Z,9.48
2019-04-16T11:34:27.046Z,9.53
2019-04-16T11:36:58.274Z,11.33
2019-04-16T11:39:25.270Z,10.80
2019-04-16T11:41:53.492Z,11.10
2019-04-16T11:44:21.714Z,10.48
2019-04-16T11:46:50.098Z,8.88
2019-04-16T11:49:18.414Z,10.72
2019-04-16T11:51:46.723Z,10.63
2019-04-16T11:54:15.043Z,9.93
2019-04-16T11:56:45.064Z,8.70
2019-04-16T11:59:13.423Z,10.28
2019-04-16T12:01:49.515Z,12.43
2019-04-16T12:04:25.467Z,10.00
2019-04-16T12:07:10.882Z,9.93
2019-04-16T12:09:49.669Z,9.70
2019-04-16T12:12:19.640Z,10.30
2019-04-16T12:14:49.547Z,11.53
2019-04-16T12:17:19.486Z,12.23
2019-04-16T12:19:52.118Z,12.82
2019-04-16T12:22:22.012Z,13.32
2019-04-16T12:24:54.911Z,15.65
2019-04-16T12:27:24.864Z,15.57
2019-04-16T12:30:12.861Z,13.48
2019-04-16T12:32:42.706Z,14.63
2019-04-16T12:35:24.898Z,11.95
2019-04-16T12:38:13.159Z,12.98
2019-04-16T12:40:58.349Z,15.68
2019-04-16T12:43:34.327Z,15.68
2019-04-16T12:46:07.013Z,14.90
2019-04-16T12:48:36.993Z,13.83
2019-04-16T12:51:06.955Z,11.63
2019-04-16T12:53:36.878Z,13.65
2019-04-16T12:56:23.068Z,13.90
2019-04-16T12:58:53.012Z,16.48
2019-04-16T13:01:26.013Z,14.87
2019-04-16T13:03:58.852Z,15.77
2019-04-16T13:06:31.137Z,15.37
2019-04-16T13:09:17.316Z,16.42
2019-04-16T13:11:47.162Z,15.38
2019-04-16T13:14:32.089Z,15.85
2019-04-16T13:17:10.797Z,19.20
2019-04-16T13:19:40.678Z,23.00
2019-04-16T13:22:19.505Z,17.50
2019-04-16T13:24:58.789Z,17.45
2019-04-16T13:27:34.527Z,15.45
2019-04-16T13:30:03.439Z,22.10
2019-04-16T13:32:31.817Z,19.80
2019-04-16T13:35:00.026Z,15.85
2019-04-16T13:37:30.413Z,14.58
2019-04-16T13:40:00.468Z,15.63
2019-04-16T13:42:28.847Z,14.18
2019-04-16T13:44:58.707Z,14.00
2019-04-16T13:47:26.936Z,13.10
2019-04-16T13:50:02.138Z,13.00
2019-04-16T13:52:26.813Z,11.08
2019-04-16T13:55:11.555Z,10.38
2019-04-16T13:57:41.439Z,12.78
2019-04-16T14:00:17.531Z,12.30
2019-04-16T14:02:47.809Z,14.43
2019-04-16T14:05:17.419Z,15.93
2019-04-16T14:07:45.683Z,16.70
2019-04-16T14:10:14.195Z,15.90
2019-04-16T14:12:42.789Z,16.70
2019-04-16T14:15:12.136Z,15.15
2019-04-16T14:17:52.413Z,15.72
2019-04-16T14:20:12.664Z,15.40
2019-04-16T14:22:40.432Z,17.45
2019-04-16T14:25:08.880Z,18.62
2019-04-16T14:27:37.165Z,15.85
2019-04-16T14:30:10.452Z,14.87
2019-04-16T14:32:37.981Z,14.53
2019-04-16T14:35:07.838Z,14.73
2019-04-16T14:37:36.070Z,18.12
2019-04-16T14:40:07.873Z,15.83
2019-04-16T14:42:36.132Z,16.73
2019-04-16T14:45:17.284Z,18.65
2019-04-16T14:47:45.502Z,14.35
2019-04-16T14:50:13.923Z,15.72
2019-04-16T14:52:42.234Z,18.35
2019-04-16T14:55:12.316Z,16.85
2019-04-16T14:57:58.699Z,15.43
2019-04-16T15:00:28.587Z,17.75
2019-04-16T15:03:07.818Z,16.80
2019-04-16T15:05:47.638Z,19.57
2019-04-16T15:08:18.089Z,17.55
2019-04-16T15:10:54.253Z,17.52
2019-04-16T15:13:24.146Z,17.82
2019-04-16T15:16:09.445Z,17.98
2019-04-16T15:18:41.186Z,18.02
2019-04-16T15:21:23.213Z,18.32
2019-04-16T15:24:04.902Z,17.62
2019-04-16T15:26:49.670Z,14.93
2019-04-16T15:29:33.342Z,17.00
2019-04-16T15:32:05.572Z,17.02
2019-04-16T15:34:41.864Z,15.68
2019-04-16T15:37:09.318Z,15.25
2019-04-16T15:39:42.041Z,14.87
2019-04-16T15:42:17.457Z,16.55
2019-04-16T15:44:48.909Z,16.35
2019-04-16T15:47:32.361Z,16.00
2019-04-16T15:50:05.590Z,16.20
2019-04-16T15:52:41.418Z,17.70
2019-04-16T15:55:22.618Z,17.20
2019-04-16T15:57:51.953Z,16.95
2019-04-16T16:00:24.820Z,16.12
2019-04-16T16:03:11.211Z,15.53
2019-04-16T16:05:44.033Z,16.45
2019-04-16T16:08:23.078Z,16.70
2019-04-16T16:10:52.949Z,16.35
2019-04-16T16:13:22.817Z,16.20
2019-04-16T16:15:51.136Z,15.75
2019-04-16T16:18:19.369Z,15.78
2019-04-16T16:20:47.598Z,15.93
2019-04-16T16:23:15.830Z,18.75
2019-04-16T16:25:44.048Z,17.65
2019-04-16T16:28:12.317Z,17.02
2019-04-16T16:30:40.526Z,17.87
2019-04-16T16:33:08.867Z,15.55
2019-04-16T16:35:37.103Z,15.93
2019-04-16T16:38:05.325Z,17.12
2019-04-16T16:40:33.542Z,15.95
2019-04-16T16:43:06.805Z,18.90
2019-04-16T16:45:39.609Z,18.70
2019-04-16T16:48:08.513Z,15.68
2019-04-16T16:50:36.754Z,17.90
2019-04-16T16:53:09.615Z,16.20
2019-04-16T16:55:45.220Z,23.45
2019-04-16T16:58:20.781Z,20.72
2019-04-16T17:00:52.366Z,20.40
2019-04-16T17:03:40.371Z,17.65
2019-04-16T17:06:10.215Z,15.70
2019-04-16T17:08:38.442Z,17.40
2019-04-16T17:11:16.003Z,16.07
2019-04-16T17:13:36.654Z,16.97
2019-04-16T17:16:04.885Z,18.73
2019-04-16T17:18:33.114Z,17.75
2019-04-16T17:21:01.336Z,17.95
2019-04-16T17:23:29.560Z,15.45
2019-04-16T17:25:58.628Z,17.52
2019-04-16T17:28:26.989Z,17.62
2019-04-16T17:30:55.388Z,16.30
2019-04-16T17:33:23.726Z,15.20
2019-04-16T17:35:51.988Z,17.42
2019-04-16T17:38:20.299Z,18.85
2019-04-16T17:41:00.257Z,15.30
2019-04-16T17:43:30.273Z,17.37
2019-04-16T17:46:03.106Z,18.17
2019-04-16T17:48:35.703Z,16.12
2019-04-16T17:51:07.979Z,14.87
2019-04-16T17:53:49.670Z,16.12
2019-04-16T17:56:35.777Z,17.02
2019-04-16T17:59:17.767Z,63.10
2019-04-16T18:01:53.661Z,23.35
2019-04-16T18:04:26.314Z,16.30
2019-04-16T18:06:56.173Z,12.40
2019-04-16T18:09:26.048Z,17.90
2019-04-16T18:11:58.832Z,13.53
2019-04-16T18:14:28.707Z,14.40
2019-04-16T18:17:04.810Z,16.00
2019-04-16T18:19:37.684Z,15.70
2019-04-16T18:22:07.535Z,11.25
2019-04-16T18:24:53.679Z,14.58
2019-04-16T18:27:42.073Z,11.93
2019-04-16T18:30:28.232Z,13.88
2019-04-16T18:33:15.257Z,12.53
2019-04-16T18:35:45.183Z,12.10
2019-04-16T18:38:19.120Z,14.73
2019-04-16T18:41:02.447Z,13.95
2019-04-16T18:43:32.605Z,13.08
2019-04-16T18:46:15.062Z,11.47
2019-04-16T18:48:44.843Z,10.58
2019-04-16T18:51:13.950Z,13.65
2019-04-16T18:53:43.386Z,12.50
2019-04-16T18:56:12.319Z,14.60
2019-04-16T18:58:41.863Z,14.23
2019-04-16T19:01:12.421Z,11.80
2019-04-16T19:03:40.929Z,11.25
2019-04-16T19:06:09.533Z,11.48
2019-04-16T19:08:42.177Z,13.25
2019-04-16T19:11:07.960Z,14.78
2019-04-16T19:13:36.303Z,11.78
2019-04-16T19:16:04.994Z,12.60
2019-04-16T19:18:33.210Z,12.93
2019-04-16T19:21:01.487Z,10.20
2019-04-16T19:23:30.155Z,18.75
2019-04-16T19:25:58.779Z,16.05
2019-04-16T19:28:27.034Z,13.62
2019-04-16T19:30:55.299Z,12.75
2019-04-16T19:33:23.519Z,12.40
2019-04-16T19:35:52.249Z,11.63
2019-04-16T19:38:20.537Z,11.60
2019-04-16T19:40:50.828Z,10.43
2019-04-16T19:43:19.007Z,11.18
2019-04-16T19:45:47.588Z,12.03
2019-04-16T19:48:34.740Z,10.40
2019-04-16T19:50:51.829Z,10.85
2019-04-16T19:53:20.265Z,12.78
2019-04-16T19:55:48.477Z,12.37
2019-04-16T19:58:16.697Z,13.05
2019-04-16T20:00:45.484Z,12.05
2019-04-16T20:03:14.035Z,14.03
2019-04-16T20:05:42.247Z,10.98
2019-04-16T20:08:26.658Z,10.88
2019-04-16T20:17:02.832Z,9.78
2019-04-16T20:19:31.325Z,11.00
2019-04-16T20:21:59.700Z,11.63
2019-04-16T20:24:28.032Z,10.60
2019-04-16T20:26:56.507Z,13.45
2019-04-16T20:29:25.833Z,18.55
2019-04-16T20:31:54.287Z,14.55
2019-04-16T20:34:22.976Z,13.40
2019-04-16T20:36:52.202Z,11.60
2019-04-16T20:39:21.603Z,13.43
2019-04-16T20:41:52.721Z,14.83
2019-04-16T20:44:19.953Z,11.65
2019-04-16T20:46:48.207Z,10.20
2019-04-16T20:49:17.449Z,11.60
2019-04-16T20:52:00.624Z,8.98
2019-04-16T20:55:04.100Z,10.93
2019-04-16T20:57:32.423Z,14.30
2019-04-16T21:00:10.272Z,12.40
2019-04-16T21:02:35.734Z,11.88
2019-04-16T21:05:20.800Z,9.58
2019-04-16T21:07:35.762Z,10.82
2019-04-16T21:10:06.163Z,11.40
2019-04-16T21:12:34.433Z,10.20
2019-04-16T21:15:03.148Z,8.43
2019-04-16T21:17:31.389Z,10.85
2019-04-16T21:19:59.803Z,10.80
2019-04-16T21:22:28.894Z,8.83
2019-04-16T21:25:03.347Z,7.72
2019-04-16T21:27:38.334Z,8.08
2019-04-16T21:30:12.658Z,8.83
2019-04-16T21:32:48.723Z,8.35
2019-04-16T21:35:28.718Z,12.33
2019-04-16T21:38:00.108Z,9.78
2019-04-16T21:40:28.312Z,11.88
2019-04-16T21:42:56.538Z,8.95
2019-04-16T21:45:24.762Z,9.70
2019-04-16T21:47:54.983Z,10.23
2019-04-16T21:50:22.943Z,10.93
2019-04-16T21:52:55.082Z,8.70
2019-04-16T21:55:21.119Z,9.25
2019-04-16T21:57:49.320Z,7.78
2019-04-16T22:00:35.367Z,10.03
2019-04-16T22:03:09.112Z,8.43
2019-04-16T22:05:35.151Z,8.55
2019-04-16T22:08:03.370Z,7.10
2019-04-16T22:10:31.594Z,8.68
2019-04-16T22:12:59.805Z,7.90
2019-04-16T22:15:28.077Z,8.98
2019-04-16T22:17:56.275Z,9.25
2019-04-16T22:20:24.506Z,8.58
2019-04-16T22:22:52.731Z,6.30
2019-04-16T22:25:23.710Z,8.33
2019-04-16T22:27:50.882Z,8.68
2019-04-16T22:30:20.092Z,8.45
2019-04-16T22:32:48.410Z,10.23
2019-04-16T22:35:16.669Z,8.90
2019-04-16T22:37:44.904Z,7.58
2019-04-16T22:40:14.747Z,8.83
2019-04-16T22:42:44.594Z,7.53
2019-04-16T22:45:23.450Z,9.38
2019-04-16T22:47:53.285Z,8.48
2019-04-16T22:50:21.513Z,7.42
2019-04-16T22:52:49.723Z,8.83
2019-04-16T22:55:17.946Z,7.03
2019-04-16T22:57:46.154Z,10.43
2019-04-16T23:00:25.154Z,12.23
2019-04-16T23:02:53.369Z,9.85
2019-04-16T23:05:21.577Z,10.23
2019-04-16T23:07:50.005Z,10.60
2019-04-16T23:10:21.161Z,12.25
2019-04-16T23:12:50.140Z,11.12
2019-04-16T23:15:18.356Z,10.05
2019-04-16T23:17:46.908Z,9.05
2019-04-16T23:20:28.619Z,9.80
2019-04-16T23:22:46.500Z,8.48
2019-04-16T23:25:15.035Z,10.68
2019-04-16T23:27:43.258Z,10.93
2019-04-16T23:30:11.488Z,8.10
2019-04-16T23:32:39.694Z,9.23
2019-04-16T23:35:10.827Z,11.20
2019-04-16T23:37:37.846Z,10.50
2019-04-16T23:40:07.140Z,9.73
2019-04-16T23:42:37.740Z,12.30
2019-04-16T23:45:24.572Z,14.78
2019-04-16T23:47:57.399Z,15.25
2019-04-16T23:50:27.295Z,12.57
2019-04-16T23:53:00.200Z,12.45
2019-04-16T23:55:48.906Z,13.58
2019-04-16T23:58:17.854Z,11.68
